Time;durP1;ratioP1;P1;durP2;ratioP2;P2;SDS_P1;SDS_P2;PMS_P1;PMS_P2;Temp;Humidity;BMP_temperature;BMP_pressure;BME280_temperature;BME280_humidity;BME280_pressure;Samples;Min_cycle;Max_cycle;Signal;HPM_P1;HPM_P2
2022/06/24 00:01:51;;;;;;;6.60;5.93;;;20.50;99.90;;;;;;5093340;28;20176;-70
2022/06/24 00:04:25;;;;;;;6.53;5.32;;;20.40;99.90;;;;;;5093497;28;20167;-70
2022/06/24 00:06:51;;;;;;;6.25;5.47;;;20.30;99.90;;;;;;5093185;28;20253;-70
2022/06/24 00:09:40;;;;;;;7.70;5.82;;;20.20;99.90;;;;;;5096692;28;20187;-70
2022/06/24 00:12:10;;;;;;;7.85;6.07;;;20.20;99.90;;;;;;5093287;28;20285;-70
2022/06/24 00:14:38;;;;;;;8.07;6.85;;;20.20;99.90;;;;;;5093428;28;20164;-70
2022/06/24 00:17:06;;;;;;;15.27;8.48;;;20.30;99.90;;;;;;5092988;28;20186;-70
2022/06/24 00:19:54;;;;;;;11.52;8.30;;;20.30;99.90;;;;;;5093401;28;20159;-70
2022/06/24 00:22:20;;;;;;;12.55;8.38;;;20.50;99.90;;;;;;5092798;28;20196;-70
2022/06/24 00:24:46;;;;;;;13.60;9.70;;;20.60;99.90;;;;;;5093337;28;20172;-70
2022/06/24 00:27:22;;;;;;;8.38;7.30;;;20.60;99.90;;;;;;5093272;28;20203;-70
2022/06/24 00:29:51;;;;;;;9.63;7.40;;;20.60;99.90;;;;;;5091698;28;20172;-70
2022/06/24 00:32:30;;;;;;;8.73;7.53;;;20.50;99.90;;;;;;5093241;28;20196;-69
2022/06/24 00:35:14;;;;;;;9.63;8.70;;;20.60;99.90;;;;;;5093249;28;20179;-70
2022/06/24 00:37:41;;;;;;;10.05;7.38;;;20.60;99.90;;;;;;5093303;28;20184;-69
2022/06/24 00:40:10;;;;;;;8.27;7.35;;;20.50;99.90;;;;;;5093078;28;20653;-69
2022/06/24 00:42:38;;;;;;;11.27;7.75;;;20.40;99.90;;;;;;5093121;28;20175;-69
2022/06/24 00:45:17;;;;;;;10.13;7.85;;;20.40;99.90;;;;;;5093003;28;20175;-69
2022/06/24 00:47:43;;;;;;;13.45;9.13;;;20.40;99.90;;;;;;5093228;28;20172;-69
2022/06/24 00:50:21;;;;;;;11.68;9.10;;;20.40;99.90;;;;;;5093199;28;20183;-69
2022/06/24 00:52:48;;;;;;;9.73;8.73;;;20.40;99.90;;;;;;5091739;28;20187;-69
2022/06/24 00:55:23;;;;;;;8.93;8.02;;;20.40;99.90;;;;;;5093178;28;20172;-69
2022/06/24 00:57:49;;;;;;;11.13;9.93;;;20.40;99.90;;;;;;5093052;28;20242;-69
2022/06/24 01:00:15;;;;;;;12.85;8.23;;;20.40;99.90;;;;;;5096351;28;20168;-69
2022/06/24 01:02:41;;;;;;;9.73;8.68;;;20.20;99.90;;;;;;5097047;28;20180;-69
2022/06/24 01:05:08;;;;;;;11.75;10.20;;;20.00;99.90;;;;;;5096584;28;20267;-70
2022/06/24 01:07:38;;;;;;;15.52;13.93;;;19.90;99.90;;;;;;5096964;28;20180;-69
2022/06/24 01:10:06;;;;;;;21.52;17.20;;;19.90;99.90;;;;;;5096792;28;20163;-69
2022/06/24 01:12:32;;;;;;;23.05;19.90;;;19.80;99.90;;;;;;5096692;28;20179;-70
2022/06/24 01:14:58;;;;;;;25.10;20.33;;;19.80;99.90;;;;;;5096444;28;20259;-69
2022/06/24 01:17:24;;;;;;;25.58;21.45;;;19.80;99.90;;;;;;5095446;28;20222;-69
2022/06/24 01:19:49;;;;;;;28.20;22.90;;;19.90;99.90;;;;;;5096676;28;20244;-69
2022/06/24 01:22:25;;;;;;;31.70;25.77;;;20.00;99.90;;;;;;5096532;28;20264;-70
2022/06/24 01:24:52;;;;;;;35.90;28.33;;;20.10;99.90;;;;;;5096824;28;20191;-69
2022/06/24 01:27:18;;;;;;;41.80;30.52;;;20.10;99.90;;;;;;5096238;28;20266;-69
2022/06/24 01:29:45;;;;;;;41.63;29.83;;;20.10;99.90;;;;;;5096406;28;20188;-69
2022/06/24 01:32:10;;;;;;;38.00;30.45;;;20.00;99.90;;;;;;5096435;28;20293;-69
2022/06/24 01:34:37;;;;;;;38.85;31.23;;;19.80;99.90;;;;;;5096198;28;20191;-69
2022/06/24 01:37:03;;;;;;;23.73;21.10;;;19.70;99.90;;;;;;5096407;28;20251;-69
2022/06/24 01:39:29;;;;;;;28.27;24.03;;;19.50;99.90;;;;;;5096287;28;20176;-69
2022/06/24 01:41:54;;;;;;;34.47;25.83;;;19.50;99.90;;;;;;5096127;28;20581;-69
2022/06/24 01:44:22;;;;;;;32.80;27.45;;;19.50;99.90;;;;;;5096171;28;20654;-69
2022/06/24 01:46:48;;;;;;;34.37;28.17;;;19.60;99.90;;;;;;5095970;28;20207;-69
2022/06/24 01:49:13;;;;;;;31.27;25.50;;;19.70;99.90;;;;;;5096074;28;20175;-69
2022/06/24 01:51:42;;;;;;;29.23;25.27;;;19.70;99.90;;;;;;5095913;28;20674;-69
2022/06/24 01:54:08;;;;;;;33.05;26.95;;;19.60;99.90;;;;;;5096150;28;20172;-69
2022/06/24 01:56:34;;;;;;;33.50;28.38;;;19.70;99.90;;;;;;5095640;28;20241;-69
2022/06/24 01:59:00;;;;;;;36.67;27.50;;;19.80;99.90;;;;;;5095754;28;20221;-69
2022/06/24 02:01:26;;;;;;;38.00;29.92;;;19.80;99.90;;;;;;5095913;28;20577;-69
2022/06/24 02:03:52;;;;;;;37.38;32.13;;;19.90;99.90;;;;;;5094417;28;20178;-69
2022/06/24 02:06:18;;;;;;;28.42;22.52;;;20.10;99.90;;;;;;5095625;28;20245;-69
2022/06/24 02:08:44;;;;;;;29.47;24.67;;;20.00;99.90;;;;;;5095699;28;20191;-69
2022/06/24 02:13:57;;;;;;;24.70;22.05;;;20.00;99.90;;;;;;5095727;28;20175;-69
2022/06/24 02:16:23;;;;;;;26.92;23.42;;;20.10;99.90;;;;;;5094491;28;20515;-69
2022/06/24 02:18:49;;;;;;;24.67;22.00;;;20.10;99.90;;;;;;5095562;28;20168;-69
2022/06/24 02:21:15;;;;;;;29.60;22.90;;;20.20;99.90;;;;;;5095486;28;20222;-69
2022/06/24 02:23:42;;;;;;;27.02;24.08;;;20.10;99.90;;;;;;5095369;28;20184;-69
2022/06/24 02:26:09;;;;;;;26.25;23.20;;;20.20;99.90;;;;;;5093530;28;20222;-69
2022/06/24 02:28:35;;;;;;;28.75;24.75;;;20.30;99.90;;;;;;5095276;28;20172;-69
2022/06/24 02:31:03;;;;;;;20.42;18.38;;;20.40;99.90;;;;;;5095288;28;20176;-69
2022/06/24 02:33:29;;;;;;;20.13;18.10;;;20.50;99.90;;;;;;5095176;28;20247;-69
2022/06/24 02:35:55;;;;;;;20.30;17.45;;;20.30;99.90;;;;;;5095156;28;20626;-69
2022/06/24 02:38:21;;;;;;;20.73;17.77;;;20.30;99.90;;;;;;5093896;28;20173;-69
2022/06/24 02:40:51;;;;;;;21.65;19.55;;;20.30;99.90;;;;;;5093263;28;20178;-69
2022/06/24 02:43:24;;;;;;;22.65;20.45;;;20.30;99.90;;;;;;5094980;28;20170;-69
2022/06/24 02:45:57;;;;;;;22.92;20.55;;;20.20;99.90;;;;;;5094881;28;20203;-69
2022/06/24 02:48:23;;;;;;;18.15;16.33;;;20.20;99.90;;;;;;5093644;28;20168;-69
2022/06/24 02:51:03;;;;;;;17.67;15.90;;;20.20;99.90;;;;;;5094745;28;20526;-69
2022/06/24 02:53:29;;;;;;;12.25;11.02;;;20.20;99.90;;;;;;5094723;28;20209;-69
2022/06/24 02:56:01;;;;;;;12.93;11.65;;;20.30;99.90;;;;;;5094542;28;20187;-69
2022/06/24 02:58:28;;;;;;;15.02;13.43;;;20.30;99.90;;;;;;5094896;28;20271;-69
2022/06/24 03:00:53;;;;;;;12.90;11.60;;;20.30;99.90;;;;;;5094515;28;20300;-69
2022/06/24 03:03:22;;;;;;;13.15;11.75;;;20.30;99.90;;;;;;5094892;28;20168;-69
2022/06/24 03:05:48;;;;;;;13.15;11.95;;;20.30;99.90;;;;;;5094045;28;20231;-70
2022/06/24 03:08:15;;;;;;;9.95;8.30;;;20.40;99.90;;;;;;5094690;28;20225;-69
2022/06/24 03:10:42;;;;;;;9.15;8.25;;;20.30;99.90;;;;;;5092788;28;20179;-69
2022/06/24 03:13:07;;;;;;;9.68;8.77;;;20.30;99.90;;;;;;5094318;28;20164;-69
2022/06/24 03:15:33;;;;;;;8.57;7.78;;;20.40;99.90;;;;;;5093980;28;20225;-69
2022/06/24 03:17:59;;;;;;;8.98;7.70;;;20.40;99.90;;;;;;5094347;28;20168;-69
2022/06/24 03:20:25;;;;;;;7.88;7.13;;;20.30;99.90;;;;;;5093846;28;20542;-69
2022/06/24 03:22:51;;;;;;;7.30;6.60;;;20.30;99.90;;;;;;5093021;28;20623;-69
2022/06/24 03:25:17;;;;;;;7.82;6.88;;;20.30;99.90;;;;;;5093786;28;20251;-69
2022/06/24 03:27:43;;;;;;;9.00;7.45;;;20.30;99.90;;;;;;5094322;28;20673;-69
2022/06/24 03:30:10;;;;;;;9.77;7.72;;;20.40;99.90;;;;;;5093707;28;20175;-69
2022/06/24 03:32:36;;;;;;;10.82;8.05;;;20.30;99.90;;;;;;5094033;28;20176;-69
2022/06/24 03:35:03;;;;;;;12.02;8.95;;;20.10;99.90;;;;;;5093544;28;20571;-69
2022/06/24 03:37:29;;;;;;;14.40;9.43;;;20.10;99.90;;;;;;5093940;28;20171;-69
2022/06/24 03:39:55;;;;;;;13.23;9.63;;;20.10;99.90;;;;;;5093660;28;20172;-69
2022/06/24 03:42:21;;;;;;;11.90;9.75;;;20.10;99.90;;;;;;5093736;28;20176;-69
2022/06/24 03:44:46;;;;;;;11.55;10.35;;;19.90;99.90;;;;;;5093765;28;20522;-70
2022/06/24 03:47:13;;;;;;;12.57;10.73;;;19.80;99.90;;;;;;5092839;28;20301;-70
2022/06/24 03:49:38;;;;;;;13.32;11.55;;;19.80;99.90;;;;;;5093264;28;20168;-69
2022/06/24 03:52:05;;;;;;;14.15;12.15;;;19.80;99.90;;;;;;5093436;28;20650;-69
2022/06/24 03:54:30;;;;;;;15.18;13.05;;;19.80;99.90;;;;;;5093142;28;20175;-69
2022/06/24 03:56:56;;;;;;;18.15;14.40;;;19.80;99.90;;;;;;5093296;28;20687;-69
2022/06/24 03:59:22;;;;;;;16.45;14.15;;;19.70;99.90;;;;;;5093245;28;20172;-69
2022/06/24 04:01:47;;;;;;;15.95;14.55;;;19.60;99.90;;;;;;5093136;28;20175;-69
2022/06/24 04:04:13;;;;;;;19.40;15.73;;;19.70;99.90;;;;;;5092881;28;20166;-70
2022/06/24 04:06:39;;;;;;;19.55;17.48;;;19.60;99.90;;;;;;5092862;28;20691;-68
2022/06/24 04:09:04;;;;;;;20.15;18.02;;;19.60;99.90;;;;;;5091669;28;20186;-68
2022/06/24 04:11:30;;;;;;;22.17;18.40;;;19.60;99.90;;;;;;5092909;28;20254;-69
2022/06/24 04:13:56;;;;;;;19.27;15.82;;;19.50;99.90;;;;;;5092928;28;20253;-68
2022/06/24 04:16:21;;;;;;;22.25;19.85;;;19.50;99.90;;;;;;5093313;28;20626;-69
2022/06/24 04:18:48;;;;;;;24.08;21.58;;;19.50;99.90;;;;;;5093125;28;20168;-69
2022/06/24 04:21:16;;;;;;;24.23;18.50;;;19.50;99.90;;;;;;5092538;28;20168;-69
2022/06/24 04:23:43;;;;;;;19.25;15.80;;;19.60;99.90;;;;;;5093184;28;20164;-69
2022/06/24 04:26:09;;;;;;;14.13;12.73;;;19.40;99.90;;;;;;5092442;28;20195;-69
2022/06/24 04:28:35;;;;;;;12.77;11.48;;;19.30;99.90;;;;;;5093101;28;20178;-69
2022/06/24 04:31:02;;;;;;;13.33;10.67;;;19.20;99.90;;;;;;5092577;28;20654;-69
2022/06/24 04:33:27;;;;;;;11.03;10.03;;;19.10;99.90;;;;;;5093449;28;20187;-69
2022/06/24 04:35:53;;;;;;;13.83;11.03;;;19.00;99.90;;;;;;5096784;28;20168;-69
2022/06/24 04:38:19;;;;;;;11.43;10.33;;;18.90;99.90;;;;;;5096901;28;20167;-69
2022/06/24 04:40:44;;;;;;;12.47;11.27;;;18.90;99.90;;;;;;5096984;28;20206;-69
2022/06/24 04:43:10;;;;;;;13.67;11.23;;;18.90;99.90;;;;;;5096682;28;20182;-69
2022/06/24 04:45:37;;;;;;;13.80;12.35;;;18.90;99.90;;;;;;5097188;28;20231;-69
2022/06/24 04:48:03;;;;;;;14.07;12.67;;;18.90;99.90;;;;;;5096891;28;20258;-69
2022/06/24 04:50:28;;;;;;;14.23;11.67;;;18.90;99.90;;;;;;5095019;28;20168;-68
2022/06/24 04:52:54;;;;;;;13.13;11.70;;;18.90;99.90;;;;;;5096270;28;20527;-68
2022/06/24 04:55:20;;;;;;;13.63;11.63;;;18.90;99.90;;;;;;5096723;28;20179;-68
2022/06/24 04:57:46;;;;;;;11.23;10.03;;;18.90;99.90;;;;;;5096369;28;20675;-69
2022/06/24 05:00:12;;;;;;;10.83;9.73;;;18.90;99.90;;;;;;5096342;28;20651;-68
2022/06/24 05:02:38;;;;;;;12.13;9.40;;;19.00;99.90;;;;;;5096460;28;20498;-70
2022/06/24 05:05:05;;;;;;;10.48;9.18;;;18.90;99.90;;;;;;5096201;28;20180;-69
2022/06/24 05:07:31;;;;;;;12.57;8.77;;;18.90;99.90;;;;;;5096316;28;20232;-68
2022/06/24 05:09:56;;;;;;;11.20;8.82;;;18.90;99.90;;;;;;5096332;28;20183;-69
2022/06/24 05:12:22;;;;;;;9.70;7.53;;;19.00;99.90;;;;;;5096348;28;20627;-70
2022/06/24 05:14:47;;;;;;;11.20;8.00;;;19.10;99.90;;;;;;5096459;28;20532;-69
2022/06/24 05:17:13;;;;;;;10.40;8.05;;;19.10;99.90;;;;;;5095060;28;20292;-70
2022/06/24 05:19:39;;;;;;;11.25;8.52;;;19.10;99.90;;;;;;5095304;28;20168;-69
2022/06/24 05:22:05;;;;;;;10.07;7.73;;;19.10;99.90;;;;;;5094896;28;20623;-70
2022/06/24 05:24:30;;;;;;;8.57;7.72;;;19.10;99.90;;;;;;5094981;28;20164;-69
2022/06/24 05:26:56;;;;;;;11.55;8.45;;;19.10;99.90;;;;;;5095499;28;20211;-69
2022/06/24 05:29:22;;;;;;;11.68;8.98;;;19.10;99.90;;;;;;5094826;28;20481;-70
2022/06/24 05:31:48;;;;;;;11.18;8.35;;;19.10;99.90;;;;;;5095110;28;20684;-69
2022/06/24 05:34:14;;;;;;;9.90;8.18;;;19.20;99.90;;;;;;5094320;28;20184;-69
2022/06/24 05:36:40;;;;;;;11.13;9.18;;;19.20;99.90;;;;;;5095164;28;20172;-69
2022/06/24 05:39:06;;;;;;;12.93;9.30;;;19.10;99.90;;;;;;5095064;28;20245;-69
2022/06/24 05:41:33;;;;;;;13.00;9.57;;;19.20;99.90;;;;;;5094995;28;20615;-69
2022/06/24 05:44:00;;;;;;;10.32;8.05;;;19.40;99.90;;;;;;5095357;28;20176;-69
2022/06/24 05:46:26;;;;;;;12.80;8.48;;;19.40;99.90;;;;;;5093003;28;20288;-69
2022/06/24 05:48:52;;;;;;;10.30;8.32;;;19.40;99.90;;;;;;5095018;28;20172;-69
2022/06/24 05:51:17;;;;;;;9.73;8.13;;;19.60;99.90;;;;;;5094437;28;20168;-69
2022/06/24 05:56:30;;;;;;;12.05;7.15;;;19.60;99.90;;;;;;5094322;28;20237;-69
2022/06/24 05:58:57;;;;;;;7.28;6.53;;;19.90;99.90;;;;;;5094579;28;20205;-68
2022/06/24 06:01:23;;;;;;;9.48;7.10;;;20.10;99.90;;;;;;5095082;28;20191;-69
2022/06/24 06:03:48;;;;;;;9.82;6.35;;;20.30;99.90;;;;;;5094417;28;20256;-68
2022/06/24 06:06:14;;;;;;;10.73;6.95;;;20.40;99.90;;;;;;5093864;28;20448;-70
2022/06/24 06:08:40;;;;;;;9.50;6.70;;;20.50;99.90;;;;;;5094338;28;20195;-70
2022/06/24 06:11:23;;;;;;;9.23;7.22;;;20.70;99.90;;;;;;5094769;28;20164;-70
2022/06/24 06:13:50;;;;;;;7.22;6.43;;;21.10;99.90;;;;;;5094015;28;20168;-70
2022/06/24 06:16:16;;;;;;;7.65;6.45;;;21.30;99.90;;;;;;5094023;28;20259;-70
2022/06/24 06:18:43;;;;;;;10.60;6.60;;;21.40;99.90;;;;;;5093340;28;20245;-70
2022/06/24 06:21:10;;;;;;;6.57;5.85;;;21.50;99.90;;;;;;5094742;28;20168;-70
2022/06/24 06:23:37;;;;;;;10.68;6.13;;;21.50;99.90;;;;;;5093896;28;20649;-70
2022/06/24 06:26:04;;;;;;;10.02;6.55;;;21.80;99.90;;;;;;5093666;28;20295;-70
2022/06/24 06:28:30;;;;;;;7.93;7.00;;;22.00;84.10;;;;;;5093511;28;20178;-70
2022/06/24 06:30:56;;;;;;;7.68;5.78;;;22.10;88.50;;;;;;5092986;28;20221;-70
2022/06/24 06:33:22;;;;;;;8.82;6.15;;;22.20;75.00;;;;;;5092182;28;20178;-70
2022/06/24 06:35:48;;;;;;;8.80;5.38;;;22.30;72.90;;;;;;5092499;28;20175;-70
2022/06/24 06:38:14;;;;;;;7.50;5.70;;;22.40;60.00;;;;;;5093847;28;20635;-69
2022/06/24 06:40:40;;;;;;;7.00;5.13;;;22.30;51.40;;;;;;5093329;28;20164;-70
2022/06/24 06:43:06;;;;;;;5.90;5.32;;;22.10;51.80;;;;;;5093989;28;20217;-69
2022/06/24 06:45:33;;;;;;;6.10;5.50;;;22.00;56.00;;;;;;5093736;28;20192;-70
2022/06/24 06:47:58;;;;;;;8.18;7.22;;;21.90;60.00;;;;;;5092830;28;20270;-70
2022/06/24 06:50:24;;;;;;;6.65;5.45;;;21.90;59.10;;;;;;5093924;28;20247;-69
2022/06/24 06:52:50;;;;;;;9.30;6.60;;;21.80;63.50;;;;;;5093465;28;20366;-70
2022/06/24 06:55:16;;;;;;;10.32;6.00;;;21.90;77.30;;;;;;5093324;28;20180;-70
2022/06/24 06:57:41;;;;;;;8.32;5.50;;;22.30;83.40;;;;;;5092586;28;20626;-69
2022/06/24 07:00:09;;;;;;;7.28;5.57;;;23.10;50.10;;;;;;5092823;28;20167;-69
2022/06/24 07:02:35;;;;;;;8.43;4.78;;;24.10;4.50;;;;;;5093260;28;20163;-70
2022/06/24 07:05:01;;;;;;;5.82;4.00;;;25.50;1.00;;;;;;5091374;28;20208;-70
2022/06/24 07:07:27;;;;;;;3.88;3.53;;;27.50;1.00;;;;;;5092791;28;20658;-71
2022/06/24 07:09:54;;;;;;;4.00;3.70;;;28.90;99.90;;;;;;5085016;28;20639;-71
2022/06/24 07:12:20;;;;;;;4.18;3.80;;;30.40;99.90;;;;;;5085964;28;20175;-72
2022/06/24 07:14:46;;;;;;;3.88;3.40;;;31.40;1.00;;;;;;5091462;28;20187;-71
2022/06/24 07:17:11;;;;;;;4.15;3.75;;;31.40;99.90;;;;;;5092582;28;20501;-71
2022/06/24 07:19:37;;;;;;;4.60;3.85;;;31.50;99.90;;;;;;5073343;28;20530;-71
2022/06/24 07:22:04;;;;;;;6.00;4.38;;;31.30;1.00;;;;;;5082723;28;20191;-70
2022/06/24 07:24:29;;;;;;;6.47;4.47;;;29.70;1.00;;;;;;5093399;28;20575;-70
2022/06/24 07:26:55;;;;;;;4.43;4.03;;;28.20;1.00;;;;;;5092463;28;20257;-70
2022/06/24 07:29:21;;;;;;;5.00;4.00;;;27.60;99.90;;;;;;5093389;28;20193;-70
2022/06/24 07:31:47;;;;;;;4.45;4.05;;;27.20;99.90;;;;;;5092833;28;20619;-70
2022/06/24 07:34:14;;;;;;;4.30;3.90;;;26.10;1.00;;;;;;5092511;28;20171;-70
2022/06/24 07:36:40;;;;;;;5.97;3.95;;;26.30;1.00;;;;;;5093162;28;20676;-71
2022/06/24 07:39:06;;;;;;;6.88;3.70;;;26.40;1.00;;;;;;5093206;28;20164;-71
2022/06/24 07:41:31;;;;;;;4.65;4.07;;;26.90;1.00;;;;;;5092581;28;20178;-71
2022/06/24 07:43:57;;;;;;;4.55;4.10;;;27.50;1.00;;;;;;5092825;28;20246;-71
2022/06/24 07:46:23;;;;;;;6.53;4.40;;;27.70;99.90;;;;;;5091255;28;20202;-71
2022/06/24 07:48:48;;;;;;;7.78;6.05;;;26.90;1.00;;;;;;5082594;28;20184;-70
2022/06/24 07:51:16;;;;;;;7.68;4.40;;;26.50;1.00;;;;;;5081555;28;20594;-70
2022/06/24 07:53:43;;;;;;;5.50;5.00;;;25.90;1.00;;;;;;5084559;28;20211;-70
2022/06/24 07:58:53;;;;;;;6.80;4.35;;;24.10;1.00;;;;;;5092885;28;20255;-69
2022/06/24 08:01:19;;;;;;;5.05;3.08;;;22.90;1.60;;;;;;5092185;28;20202;-69
2022/06/24 08:03:44;;;;;;;2.42;1.98;;;22.30;5.60;;;;;;5092512;28;20175;-69
2022/06/24 08:06:10;;;;;;;4.03;1.60;;;21.80;1.00;;;;;;5082476;28;20816;-69
2022/06/24 08:08:36;;;;;;;2.40;1.30;;;21.30;1.00;;;;;;5071619;28;20212;-69
2022/06/24 08:11:01;;;;;;;4.72;1.10;;;20.80;1.00;;;;;;5072336;28;20264;-69
2022/06/24 08:13:27;;;;;;;1.90;1.20;;;20.70;6.90;;;;;;5071379;28;20184;-69
2022/06/24 08:15:53;;;;;;;3.28;1.15;;;20.50;11.30;;;;;;5075367;28;20215;-69
2022/06/24 08:18:19;;;;;;;5.70;3.33;;;20.30;17.80;;;;;;5090736;28;20521;-69
2022/06/24 08:20:44;;;;;;;1.90;1.00;;;20.10;34.70;;;;;;5091741;28;20163;-69
2022/06/24 08:23:10;;;;;;;1.77;1.08;;;19.90;49.80;;;;;;5091654;28;20635;-69
2022/06/24 08:25:36;;;;;;;5.35;1.52;;;19.70;53.30;;;;;;5092233;28;20217;-69
2022/06/24 08:28:02;;;;;;;1.90;1.48;;;19.40;65.90;;;;;;5092000;28;20176;-69
2022/06/24 08:30:27;;;;;;;5.00;1.30;;;19.40;90.40;;;;;;5092522;28;20170;-69
2022/06/24 08:32:53;;;;;;;2.77;1.20;;;19.40;95.40;;;;;;5092062;28;20255;-69
2022/06/24 08:35:19;;;;;;;3.37;1.30;;;19.30;98.60;;;;;;5092017;28;20171;-69
2022/06/24 08:37:45;;;;;;;1.42;0.85;;;19.20;99.90;;;;;;5092270;28;20584;-69
2022/06/24 08:40:11;;;;;;;2.27;1.57;;;19.00;95.60;;;;;;5091169;28;20206;-68
2022/06/24 08:42:38;;;;;;;2.87;1.20;;;18.90;87.90;;;;;;5091329;28;20168;-69
2022/06/24 08:45:05;;;;;;;5.03;1.50;;;18.80;91.40;;;;;;5089621;28;20172;-69
2022/06/24 08:47:30;;;;;;;2.57;1.07;;;18.80;96.60;;;;;;5091784;28;20211;-68
2022/06/24 08:49:56;;;;;;;2.70;1.27;;;18.70;99.90;;;;;;5091880;28;20175;-68
2022/06/24 08:52:22;;;;;;;3.23;1.30;;;18.70;99.90;;;;;;5091807;28;20172;-69
2022/06/24 08:54:49;;;;;;;5.47;1.50;;;18.80;99.90;;;;;;5092106;28;20704;-68
2022/06/24 08:57:15;;;;;;;3.17;1.20;;;18.90;99.90;;;;;;5091686;28;20702;-69
2022/06/24 08:59:43;;;;;;;1.87;0.90;;;19.00;99.90;;;;;;5088556;28;20182;-69
2022/06/24 09:02:14;;;;;;;1.30;0.90;;;19.10;99.90;;;;;;5092229;28;20633;-69
2022/06/24 09:04:43;;;;;;;2.58;1.10;;;19.10;99.90;;;;;;5082196;28;20187;-68
2022/06/24 09:07:25;;;;;;;2.27;1.13;;;19.20;99.90;;;;;;5081358;28;20265;-68
2022/06/24 09:10:04;;;;;;;1.70;1.13;;;19.30;99.90;;;;;;5074102;28;20689;-68
2022/06/24 09:12:48;;;;;;;1.20;1.10;;;19.40;99.90;;;;;;5090846;28;20237;-68
2022/06/24 09:15:16;;;;;;;2.55;1.95;;;19.30;99.90;;;;;;5091292;28;20685;-68
2022/06/24 09:17:42;;;;;;;1.20;1.10;;;19.40;99.90;;;;;;5091987;28;20183;-69
2022/06/24 09:20:17;;;;;;;1.40;1.30;;;19.50;93.80;;;;;;5093431;28;20168;-69
2022/06/24 09:22:43;;;;;;;1.48;1.38;;;19.60;94.70;;;;;;5084136;28;20184;-68
2022/06/24 09:25:09;;;;;;;1.77;1.30;;;19.60;87.40;;;;;;5074849;28;20247;-68
2022/06/24 09:27:35;;;;;;;1.88;1.52;;;19.90;87.20;;;;;;5075022;28;20286;-68
2022/06/24 09:30:01;;;;;;;1.85;1.55;;;20.00;93.30;;;;;;5075363;28;20218;-69
2022/06/24 09:32:28;;;;;;;2.13;1.30;;;20.30;92.50;;;;;;5074546;28;20180;-68
2022/06/24 09:35:09;;;;;;;3.30;1.70;;;20.30;84.40;;;;;;5075145;28;20514;-69
2022/06/24 09:37:46;;;;;;;4.55;1.90;;;20.40;74.10;;;;;;5074565;28;20173;-69
2022/06/24 09:40:19;;;;;;;3.00;1.60;;;20.90;71.10;;;;;;5074892;28;20164;-69
2022/06/24 09:42:59;;;;;;;3.15;1.77;;;21.30;71.20;;;;;;5075064;28;20175;-69
2022/06/24 09:45:46;;;;;;;3.33;1.83;;;21.70;46.30;;;;;;5080324;28;20180;-69
2022/06/24 09:48:32;;;;;;;3.33;1.92;;;22.20;17.70;;;;;;5083670;28;20179;-70
2022/06/24 09:51:06;;;;;;;2.00;1.70;;;22.90;1.00;;;;;;5090913;28;20203;-69
2022/06/24 09:53:41;;;;;;;5.10;2.40;;;24.20;1.00;;;;;;5074589;28;20169;-68
2022/06/24 09:56:09;;;;;;;1.92;1.73;;;25.70;1.00;;;;;;5075038;28;20294;-69
2022/06/24 09:58:36;;;;;;;3.13;1.17;;;27.00;1.00;;;;;;5079156;28;20169;-69
2022/06/24 10:01:02;;;;;;;1.27;1.17;;;28.50;1.00;;;;;;5074521;28;20528;-70
2022/06/24 10:03:28;;;;;;;2.05;1.27;;;27.90;1.00;;;;;;5074455;28;20472;-70
2022/06/24 10:05:59;;;;;;;2.00;1.45;;;26.90;1.00;;;;;;5074101;28;20319;-70
2022/06/24 10:08:27;;;;;;;1.23;1.10;;;26.70;1.00;;;;;;5074255;28;20702;-69
2022/06/24 10:10:55;;;;;;;1.50;1.40;;;26.60;99.90;;;;;;5073374;28;20169;-70
2022/06/24 10:13:29;;;;;;;1.20;1.10;;;27.30;99.90;;;;;;5074777;28;20183;-69
2022/06/24 10:15:56;;;;;;;1.08;1.00;;;27.40;1.00;;;;;;5075149;28;20219;-69
2022/06/24 10:18:27;;;;;;;1.48;1.38;;;27.90;1.00;;;;;;5082496;28;20168;-69
2022/06/24 10:20:57;;;;;;;2.75;2.55;;;27.40;99.90;;;;;;5093977;28;20172;-69
2022/06/24 10:23:35;;;;;;;2.95;1.45;;;27.10;1.00;;;;;;5073681;28;20251;-70
2022/06/24 10:26:16;;;;;;;1.40;1.30;;;26.90;99.90;;;;;;5091276;28;20204;-70
2022/06/24 10:29:00;;;;;;;0.95;0.82;;;26.70;1.00;;;;;;5092076;28;20175;-70
2022/06/24 10:31:44;;;;;;;2.20;1.52;;;26.40;99.90;;;;;;5093856;28;20172;-70
2022/06/24 10:34:22;;;;;;;1.25;1.20;;;26.00;99.90;;;;;;5084207;28;20200;-69
2022/06/24 10:36:49;;;;;;;1.27;1.20;;;25.20;1.00;;;;;;5073963;28;20168;-69
2022/06/24 10:39:20;;;;;;;1.58;1.50;;;24.60;1.00;;;;;;5073098;28;20246;-69
2022/06/24 10:41:46;;;;;;;2.10;1.98;;;24.90;1.00;;;;;;5074094;28;20177;-69
2022/06/24 10:44:25;;;;;;;2.15;1.95;;;24.90;1.00;;;;;;5071913;28;20173;-70
2022/06/24 10:47:12;;;;;;;2.15;1.80;;;25.70;1.00;;;;;;5073453;28;20208;-70
2022/06/24 10:49:52;;;;;;;2.28;2.03;;;25.50;99.90;;;;;;5073806;28;20302;-70
2022/06/24 10:53:01;;;;;;;2.47;2.15;;;25.10;1.00;;;;;;5072197;28;20515;-70
2022/06/24 10:55:28;;;;;;;2.45;2.28;;;25.40;99.90;;;;;;5072985;28;20173;-69
2022/06/24 10:57:55;;;;;;;2.38;2.00;;;26.40;1.00;;;;;;5072986;28;20218;-69
2022/06/24 11:00:25;;;;;;;2.03;1.65;;;26.90;34.50;;;;;;5073621;28;20242;-70
2022/06/24 11:03:02;;;;;;;1.90;1.80;;;27.80;1.00;;;;;;5072535;28;20223;-70
2022/06/24 11:05:38;;;;;;;1.90;1.75;;;27.80;1.00;;;;;;5073391;28;20276;-71
2022/06/24 11:08:10;;;;;;;3.28;1.98;;;27.10;1.00;;;;;;5073152;28;20237;-71
2022/06/24 11:10:35;;;;;;;2.33;2.13;;;27.30;1.00;;;;;;5071793;28;20177;-71
2022/06/24 11:13:03;;;;;;;4.30;1.70;;;27.70;1.00;;;;;;5073046;28;20184;-70
2022/06/24 11:15:49;;;;;;;1.73;1.63;;;28.80;44.70;;;;;;5073576;28;20169;-71
2022/06/24 11:18:23;;;;;;;2.70;1.70;;;29.40;99.90;;;;;;5073116;28;20172;-71
2022/06/24 11:20:55;;;;;;;1.75;1.65;;;29.00;40.20;;;;;;5073124;28;20160;-72
2022/06/24 11:23:28;;;;;;;1.65;1.40;;;28.10;1.00;;;;;;5073019;28;20176;-71
2022/06/24 11:26:05;;;;;;;1.90;1.70;;;28.20;1.00;;;;;;5072629;28;20200;-70
2022/06/24 11:28:33;;;;;;;2.00;1.85;;;27.70;99.90;;;;;;5072560;28;20199;-70
2022/06/24 11:31:28;;;;;;;1.80;1.70;;;27.20;1.00;;;;;;5073176;28;20259;-70
2022/06/24 11:34:14;;;;;;;5.13;1.80;;;28.20;99.90;;;;;;5072640;28;20180;-70
2022/06/24 11:36:41;;;;;;;1.52;1.40;;;28.10;1.00;;;;;;5072259;28;20176;-71
2022/06/24 11:39:09;;;;;;;1.52;1.35;;;28.10;99.90;;;;;;5072628;28;20170;-69
2022/06/24 11:41:39;;;;;;;1.05;1.02;;;27.60;1.00;;;;;;5072982;28;20196;-70
2022/06/24 11:44:06;;;;;;;1.25;1.15;;;27.00;1.00;;;;;;5072031;28;20221;-69
2022/06/24 11:46:34;;;;;;;1.60;1.50;;;27.40;1.00;;;;;;5072387;28;20286;-70
2022/06/24 11:49:10;;;;;;;1.38;1.27;;;28.30;1.00;;;;;;5072441;28;20165;-71
2022/06/24 11:51:35;;;;;;;1.90;1.20;;;28.70;99.90;;;;;;5083522;28;20619;-71
2022/06/24 11:54:06;;;;;;;1.50;1.40;;;29.10;56.50;;;;;;5086592;28;20201;-69
2022/06/24 11:56:34;;;;;;;2.13;1.67;;;28.90;90.00;;;;;;5080620;28;20188;-70
2022/06/24 11:59:01;;;;;;;2.95;1.48;;;28.70;31.10;;;;;;5072295;28;20251;-70
2022/06/24 12:01:28;;;;;;;3.47;1.38;;;28.20;99.90;;;;;;5072810;28;20293;-70
2022/06/24 12:03:56;;;;;;;1.60;1.50;;;28.00;1.00;;;;;;5072092;28;20168;-70
2022/06/24 12:06:22;;;;;;;1.20;1.20;;;28.30;99.90;;;;;;5071435;28;20226;-71
2022/06/24 12:08:49;;;;;;;2.30;1.33;;;27.50;1.00;;;;;;5074704;28;20507;-69
2022/06/24 12:11:20;;;;;;;2.88;1.10;;;27.00;1.00;;;;;;5075254;28;20199;-69
2022/06/24 12:14:03;;;;;;;1.55;1.40;;;26.90;1.00;;;;;;5075104;28;20172;-71
2022/06/24 12:16:55;;;;;;;1.50;1.40;;;26.70;99.90;;;;;;5091477;28;20175;-72
2022/06/24 12:19:21;;;;;;;3.17;1.80;;;26.90;1.00;;;;;;5092792;28;20225;-70
2022/06/24 12:21:47;;;;;;;1.80;1.70;;;27.00;1.00;;;;;;5088970;28;20175;-70
2022/06/24 12:24:26;;;;;;;2.13;1.90;;;26.90;25.50;;;;;;5092518;28;20558;-69
2022/06/24 12:26:54;;;;;;;3.45;1.70;;;27.00;99.90;;;;;;5085098;28;20273;-69
2022/06/24 12:29:44;;;;;;;1.52;1.42;;;27.10;99.90;;;;;;5086044;28;20168;-69
2022/06/24 12:32:10;;;;;;;1.67;1.58;;;27.30;99.90;;;;;;5070110;28;20264;-70
2022/06/24 12:34:41;;;;;;;1.70;1.60;;;27.40;1.00;;;;;;5082254;28;20613;-69
2022/06/24 12:37:09;;;;;;;2.97;1.88;;;27.00;99.90;;;;;;5075727;28;20259;-69
2022/06/24 12:39:39;;;;;;;1.70;1.60;;;26.50;1.00;;;;;;5075122;28;20184;-70
2022/06/24 12:42:06;;;;;;;2.38;1.90;;;26.70;99.90;;;;;;5070396;28;20211;-69
2022/06/24 12:44:44;;;;;;;1.67;1.58;;;26.70;20.00;;;;;;5072068;28;20160;-69
2022/06/24 12:53:05;;;;;;;2.55;2.13;;;26.90;99.90;;;;;;5074745;28;20225;-70
2022/06/24 12:55:32;;;;;;;2.15;2.00;;;26.70;99.90;;;;;;5080865;28;20176;-70
2022/06/24 12:57:57;;;;;;;2.90;2.70;;;27.20;99.90;;;;;;5085662;28;20173;-70
2022/06/24 13:00:23;;;;;;;2.05;1.95;;;27.20;99.90;;;;;;5088928;28;20255;-70
2022/06/24 13:02:53;;;;;;;3.35;2.10;;;27.10;1.00;;;;;;5094125;28;20630;-70
2022/06/24 13:05:20;;;;;;;1.98;1.88;;;27.10;99.90;;;;;;5092016;28;20172;-71